createdAt,value
2018-08-17T00:01:03.367Z,98.60
2018-08-17T00:03:32.089Z,98.80
2018-08-17T00:06:05.185Z,99.90
2018-08-17T00:08:33.761Z,99.90
2018-08-17T00:11:05.955Z,99.90
2018-08-17T00:13:35.079Z,99.90
2018-08-17T00:16:06.890Z,99.90
2018-08-17T00:18:35.477Z,99.90
2018-08-17T00:21:04.054Z,99.90
2018-08-17T00:23:37.346Z,99.90
2018-08-17T00:26:06.000Z,99.90
2018-08-17T00:28:39.126Z,99.90
2018-08-17T00:31:07.673Z,99.90
2018-08-17T00:33:39.997Z,99.90
2018-08-17T00:36:08.580Z,99.90
2018-08-17T00:38:37.114Z,99.90
2018-08-17T00:41:08.622Z,99.90
2018-08-17T00:43:37.194Z,99.90
2018-08-17T00:46:10.315Z,99.90
2018-08-17T00:48:42.127Z,99.90
2018-08-17T00:51:13.925Z,99.90
2018-08-17T00:53:42.458Z,99.90
2018-08-17T00:56:10.971Z,99.90
2018-08-17T00:58:42.514Z,99.90
2018-08-17T01:01:11.053Z,99.90
2018-08-17T01:03:39.597Z,99.90
2018-08-17T01:06:12.093Z,99.90
2018-08-17T01:08:40.617Z,99.90
2018-08-17T01:11:09.200Z,99.90
2018-08-17T01:13:40.639Z,99.90
2018-08-17T01:16:09.342Z,99.90
2018-08-17T01:18:43.324Z,99.90
2018-08-17T01:21:11.849Z,99.90
2018-08-17T01:23:45.115Z,99.90
2018-08-17T01:26:13.625Z,99.90
2018-08-17T01:28:42.174Z,99.90
2018-08-17T01:31:13.747Z,99.90
2018-08-17T01:33:42.277Z,99.90
2018-08-17T01:36:10.839Z,99.90
2018-08-17T01:38:43.313Z,99.90
2018-08-17T01:41:11.851Z,99.90
2018-08-17T01:43:44.155Z,99.90
2018-08-17T01:46:12.769Z,99.90
2018-08-17T01:48:48.577Z,99.90
2018-08-17T01:51:17.125Z,99.90
2018-08-17T01:53:50.377Z,99.90
2018-08-17T01:56:18.948Z,99.90
2018-08-17T01:58:51.345Z,99.90
2018-08-17T02:01:19.969Z,99.90
2018-08-17T02:03:52.193Z,99.90
2018-08-17T02:06:20.973Z,99.90
2018-08-17T02:08:53.040Z,99.90
2018-08-17T02:11:21.599Z,99.90
2018-08-17T02:13:50.089Z,99.90
2018-08-17T02:16:21.712Z,99.90
2018-08-17T02:18:50.246Z,99.90
2018-08-17T02:21:18.884Z,99.90
2018-08-17T02:23:51.236Z,99.90
2018-08-17T02:26:19.787Z,99.90
2018-08-17T02:28:52.111Z,99.90
2018-08-17T02:31:20.672Z,99.90
2018-08-17T02:33:49.274Z,99.90
2018-08-17T02:36:20.732Z,99.90
2018-08-17T02:38:49.365Z,99.90
2018-08-17T02:41:21.588Z,99.90
2018-08-17T02:43:50.163Z,99.90
2018-08-17T02:46:18.667Z,99.90
2018-08-17T02:48:54.727Z,99.90
2018-08-17T02:51:23.313Z,99.90
2018-08-17T02:53:55.601Z,99.90
2018-08-17T02:56:24.175Z,99.90
2018-08-17T02:58:57.365Z,99.90
2018-08-17T03:01:40.498Z,99.90
2018-08-17T03:04:12.702Z,99.90
2018-08-17T03:06:41.266Z,99.90
2018-08-17T03:09:15.474Z,99.90
2018-08-17T03:11:44.003Z,99.90
2018-08-17T03:14:16.324Z,99.90
2018-08-17T03:16:44.897Z,99.90
2018-08-17T03:19:17.156Z,99.90
2018-08-17T03:21:45.744Z,99.90
2018-08-17T03:24:14.208Z,99.90
2018-08-17T03:26:45.808Z,99.90
2018-08-17T03:29:14.348Z,99.90
2018-08-17T03:31:42.905Z,99.90
2018-08-17T03:34:15.375Z,99.90
2018-08-17T03:36:44.235Z,99.90
2018-08-17T03:39:17.154Z,99.90
2018-08-17T03:41:45.736Z,99.90
2018-08-17T03:44:14.264Z,99.90
2018-08-17T03:46:45.687Z,99.90
2018-08-17T03:49:17.419Z,99.90
2018-08-17T03:51:50.255Z,99.90
2018-08-17T03:54:18.843Z,99.90
2018-08-17T03:56:51.088Z,99.90
2018-08-17T03:59:19.621Z,99.90
2018-08-17T04:01:48.151Z,99.90
2018-08-17T04:04:21.450Z,99.90
2018-08-17T04:06:50.026Z,99.90
2018-08-17T04:09:22.411Z,99.90
2018-08-17T04:11:51.455Z,99.90
2018-08-17T04:14:23.285Z,99.90
2018-08-17T04:16:51.840Z,99.90
2018-08-17T04:19:24.148Z,99.90
2018-08-17T04:21:52.777Z,99.90
2018-08-17T04:24:25.039Z,99.90
2018-08-17T04:26:53.603Z,99.90
2018-08-17T04:29:25.879Z,99.90
2018-08-17T04:31:54.439Z,99.90
2018-08-17T04:34:26.814Z,99.90
2018-08-17T04:36:55.425Z,99.90
2018-08-17T04:39:28.609Z,99.90
2018-08-17T04:41:57.221Z,99.90
2018-08-17T04:44:30.453Z,99.90
2018-08-17T04:46:59.035Z,99.90
2018-08-17T04:49:34.824Z,99.90
2018-08-17T04:52:03.600Z,99.90
2018-08-17T04:54:35.680Z,99.90
2018-08-17T04:57:04.303Z,99.90
2018-08-17T04:59:32.815Z,99.90
2018-08-17T05:02:05.232Z,99.90
2018-08-17T05:04:33.763Z,99.90
2018-08-17T05:07:02.274Z,99.90
2018-08-17T05:09:33.892Z,99.90
2018-08-17T05:12:02.493Z,99.90
2018-08-17T05:14:34.726Z,99.90
2018-08-17T05:17:03.374Z,99.90
2018-08-17T05:19:36.533Z,99.90
2018-08-17T05:22:05.527Z,99.90
2018-08-17T05:24:38.323Z,99.90
2018-08-17T05:27:07.050Z,99.90
2018-08-17T05:29:39.120Z,99.90
2018-08-17T05:32:09.156Z,99.90
2018-08-17T05:34:40.879Z,99.90
2018-08-17T05:37:09.500Z,99.90
2018-08-17T05:39:38.098Z,99.90
2018-08-17T05:42:14.001Z,99.90
2018-08-17T05:44:42.669Z,99.90
2018-08-17T05:47:14.940Z,99.90
2018-08-17T05:49:51.107Z,99.90
2018-08-17T05:52:23.064Z,99.90
2018-08-17T05:54:51.749Z,99.90
2018-08-17T05:57:24.023Z,99.90
2018-08-17T05:59:52.594Z,99.90
2018-08-17T06:02:24.866Z,99.90
2018-08-17T06:04:53.519Z,99.90
2018-08-17T06:07:25.756Z,99.90
2018-08-17T06:09:54.378Z,99.90
2018-08-17T06:12:27.562Z,99.90
2018-08-17T06:14:56.175Z,99.90
2018-08-17T06:17:29.268Z,99.90
2018-08-17T06:19:57.842Z,99.90
2018-08-17T06:22:26.455Z,99.90
2018-08-17T06:24:57.905Z,99.90
2018-08-17T06:27:26.561Z,99.90
2018-08-17T06:30:00.616Z,99.90
2018-08-17T06:32:29.215Z,99.90
2018-08-17T06:35:02.428Z,99.90
2018-08-17T06:37:30.965Z,99.90
2018-08-17T06:40:03.302Z,99.90
2018-08-17T06:42:32.441Z,99.90
2018-08-17T06:45:04.156Z,99.90
2018-08-17T06:47:32.740Z,99.90
2018-08-17T06:50:09.642Z,99.90
2018-08-17T06:52:40.195Z,99.90
2018-08-17T06:55:13.118Z,99.90
2018-08-17T06:57:41.749Z,99.90
2018-08-17T07:00:18.572Z,99.90
2018-08-17T07:02:47.328Z,99.90
2018-08-17T07:05:20.367Z,99.90
2018-08-17T07:07:48.861Z,99.90
2018-08-17T07:10:21.146Z,99.90
2018-08-17T07:12:49.676Z,99.90
2018-08-17T07:15:18.253Z,99.90
2018-08-17T07:17:51.713Z,99.90
2018-08-17T07:20:20.367Z,99.90
2018-08-17T07:22:53.473Z,99.90
2018-08-17T07:25:22.082Z,99.90
2018-08-17T07:27:54.505Z,99.90
2018-08-17T07:30:22.998Z,99.90
2018-08-17T07:32:55.270Z,99.90
2018-08-17T07:35:23.960Z,99.90
2018-08-17T07:37:56.045Z,99.90
2018-08-17T07:40:24.715Z,99.90
2018-08-17T07:42:56.937Z,99.60
2018-08-17T07:45:25.531Z,99.20
2018-08-17T07:47:54.138Z,98.90
2018-08-17T07:50:30.023Z,96.40
2018-08-17T07:52:58.465Z,97.30
2018-08-17T07:55:30.882Z,94.70
2018-08-17T07:57:59.441Z,96.70
2018-08-17T08:00:28.000Z,95.20
2018-08-17T08:03:00.475Z,95.10
2018-08-17T08:05:28.988Z,93.60
2018-08-17T08:08:01.358Z,94.70
2018-08-17T08:10:29.934Z,90.40
2018-08-17T08:12:58.502Z,91.40
2018-08-17T08:15:29.988Z,91.30
2018-08-17T08:17:58.606Z,91.80
2018-08-17T08:20:35.336Z,90.20
2018-08-17T08:23:15.575Z,85.50
2018-08-17T08:25:47.140Z,85.80
2018-08-17T08:28:15.747Z,83.60
2018-08-17T08:30:48.023Z,86.30
2018-08-17T08:33:16.677Z,82.70
2018-08-17T08:35:48.953Z,80.60
2018-08-17T08:38:17.847Z,80.10
2018-08-17T08:40:51.556Z,81.70
2018-08-17T08:43:20.336Z,78.90
2018-08-17T08:45:53.342Z,82.20
2018-08-17T08:48:21.912Z,79.50
2018-08-17T08:51:01.867Z,79.60
2018-08-17T08:53:30.443Z,78.70
2018-08-17T08:56:02.391Z,72.20
2018-08-17T08:58:31.030Z,74.60
2018-08-17T09:01:03.305Z,76.30
2018-08-17T09:03:31.843Z,77.40
2018-08-17T09:06:00.370Z,75.00
2018-08-17T09:08:33.676Z,72.50
2018-08-17T09:11:02.537Z,68.10
2018-08-17T09:13:35.497Z,71.50
2018-08-17T09:16:04.061Z,71.30
2018-08-17T09:18:36.306Z,69.60
2018-08-17T09:21:04.882Z,70.20
2018-08-17T09:23:33.472Z,65.80
2018-08-17T09:26:04.927Z,65.30
2018-08-17T09:28:33.497Z,65.00
2018-08-17T09:31:02.064Z,63.70
2018-08-17T09:33:34.506Z,66.80
2018-08-17T09:36:03.112Z,64.40
2018-08-17T09:38:35.328Z,63.70
2018-08-17T09:41:03.877Z,61.50
2018-08-17T09:43:32.434Z,64.50
2018-08-17T09:46:03.963Z,62.30
2018-08-17T09:48:32.631Z,62.20
2018-08-17T09:51:08.377Z,63.60
2018-08-17T09:53:36.921Z,64.00
2018-08-17T09:56:05.511Z,62.20
2018-08-17T09:58:37.020Z,60.40
2018-08-17T10:01:10.945Z,59.70
2018-08-17T10:03:47.850Z,59.80
2018-08-17T10:06:21.698Z,62.00
2018-08-17T10:08:59.629Z,59.50
2018-08-17T10:11:28.189Z,56.90
2018-08-17T10:14:00.441Z,59.00
2018-08-17T10:16:29.048Z,57.70
2018-08-17T10:18:57.576Z,56.00
2018-08-17T10:21:29.264Z,55.90
2018-08-17T10:23:57.662Z,57.20
2018-08-17T10:26:26.211Z,55.30
2018-08-17T10:28:58.543Z,53.90
2018-08-17T10:31:27.122Z,55.70
2018-08-17T10:33:59.459Z,52.50
2018-08-17T10:36:30.860Z,57.10
2018-08-17T10:39:03.063Z,52.70
2018-08-17T10:41:31.612Z,54.30
2018-08-17T10:44:03.926Z,54.20
2018-08-17T10:46:32.486Z,52.10
2018-08-17T10:49:01.167Z,53.10
2018-08-17T10:51:37.066Z,52.70
2018-08-17T10:54:05.664Z,54.90
2018-08-17T10:56:38.024Z,53.10
2018-08-17T10:59:06.588Z,54.90
2018-08-17T11:01:39.752Z,53.40
2018-08-17T11:04:08.341Z,53.40
2018-08-17T11:06:40.663Z,51.30
2018-08-17T11:09:10.296Z,54.10
2018-08-17T11:11:43.257Z,50.80
2018-08-17T11:14:11.875Z,49.70
2018-08-17T11:16:40.456Z,48.30
2018-08-17T11:19:13.718Z,48.10
2018-08-17T11:21:42.243Z,47.80
2018-08-17T11:24:14.615Z,49.90
2018-08-17T11:26:43.124Z,51.10
2018-08-17T11:29:15.483Z,48.00
2018-08-17T11:31:44.056Z,48.00
2018-08-17T11:34:12.800Z,47.00
2018-08-17T11:36:44.967Z,47.90
2018-08-17T11:39:13.507Z,48.90
2018-08-17T11:41:42.062Z,48.00
2018-08-17T11:44:17.190Z,48.40
2018-08-17T11:46:45.729Z,49.40
2018-08-17T11:49:21.711Z,46.40
2018-08-17T11:51:53.495Z,46.80
2018-08-17T11:54:25.405Z,44.00
2018-08-17T11:56:53.953Z,45.60
2018-08-17T11:59:22.456Z,46.00
2018-08-17T12:01:55.779Z,45.80
2018-08-17T12:04:24.275Z,46.80
2018-08-17T12:06:56.608Z,44.70
2018-08-17T12:09:25.159Z,48.40
2018-08-17T12:11:58.453Z,47.10
2018-08-17T12:14:27.054Z,48.30
2018-08-17T12:16:55.582Z,45.50
2018-08-17T12:19:27.689Z,43.70
2018-08-17T12:21:56.293Z,43.10
2018-08-17T12:24:28.227Z,44.80
2018-08-17T12:26:57.849Z,45.60
2018-08-17T12:29:30.722Z,45.40
2018-08-17T12:31:59.293Z,45.70
2018-08-17T12:34:35.111Z,44.30
2018-08-17T12:37:03.738Z,45.20
2018-08-17T12:39:35.984Z,46.20
2018-08-17T12:42:04.598Z,44.60
2018-08-17T12:44:37.790Z,44.10
2018-08-17T12:47:06.382Z,47.00
2018-08-17T12:49:38.741Z,48.90
2018-08-17T12:52:10.607Z,46.20
2018-08-17T12:54:42.249Z,44.90
2018-08-17T12:57:10.769Z,43.60
2018-08-17T12:59:39.337Z,46.40
2018-08-17T13:02:11.809Z,45.10
2018-08-17T13:04:40.312Z,45.80
2018-08-17T13:07:12.685Z,45.40
2018-08-17T13:09:41.227Z,42.90
2018-08-17T13:12:13.520Z,43.20
2018-08-17T13:14:42.010Z,43.80
2018-08-17T13:17:10.558Z,45.70
2018-08-17T13:19:42.126Z,44.80
2018-08-17T13:22:10.694Z,49.10
2018-08-17T13:24:39.247Z,49.40
2018-08-17T13:27:11.744Z,49.70
2018-08-17T13:29:40.258Z,45.30
2018-08-17T13:32:12.521Z,50.40
2018-08-17T13:34:41.050Z,45.30
2018-08-17T13:37:09.591Z,45.90
2018-08-17T13:39:42.053Z,43.80
2018-08-17T13:42:49.574Z,43.70
2018-08-17T13:45:21.024Z,44.40
2018-08-17T13:47:49.563Z,43.20
2018-08-17T13:50:18.158Z,45.60
2018-08-17T13:52:54.180Z,44.60
2018-08-17T13:55:22.846Z,44.30
2018-08-17T13:57:55.018Z,43.90
2018-08-17T14:00:23.640Z,45.60
2018-08-17T14:02:56.864Z,44.00
2018-08-17T14:05:25.510Z,42.60
2018-08-17T14:07:58.606Z,44.00
2018-08-17T14:10:27.323Z,45.10
2018-08-17T14:12:59.558Z,43.20
2018-08-17T14:15:28.141Z,45.10
2018-08-17T14:18:00.308Z,44.00
2018-08-17T14:20:28.842Z,42.30
2018-08-17T14:22:57.354Z,44.90
2018-08-17T14:25:29.830Z,41.50
2018-08-17T14:27:58.408Z,43.20
2018-08-17T14:30:30.736Z,41.70
2018-08-17T14:32:59.315Z,43.10
2018-08-17T14:35:31.688Z,43.50
2018-08-17T14:38:00.303Z,41.20
2018-08-17T14:40:32.571Z,42.80
2018-08-17T14:43:01.154Z,42.80
2018-08-17T14:45:33.396Z,42.00
2018-08-17T14:48:02.000Z,42.80
2018-08-17T14:50:34.284Z,45.10
2018-08-17T14:53:06.975Z,43.00
2018-08-17T14:55:39.855Z,44.90
2018-08-17T14:58:08.501Z,42.60
2018-08-17T15:00:40.525Z,45.30
2018-08-17T15:03:09.127Z,43.50
2018-08-17T15:05:41.396Z,43.80
2018-08-17T15:08:10.004Z,43.40
2018-08-17T15:10:38.572Z,44.30
2018-08-17T15:13:10.204Z,44.20
2018-08-17T15:15:38.686Z,44.70
2018-08-17T15:18:11.882Z,44.80
2018-08-17T15:20:40.472Z,46.90
2018-08-17T15:23:13.543Z,46.20
2018-08-17T15:25:43.199Z,46.30
2018-08-17T15:28:15.447Z,47.70
2018-08-17T15:30:44.013Z,47.80
2018-08-17T15:33:16.206Z,48.00
2018-08-17T15:35:44.792Z,48.30
2018-08-17T15:38:13.398Z,49.10
2018-08-17T15:40:45.786Z,48.00
2018-08-17T15:43:18.193Z,48.60
2018-08-17T15:45:51.119Z,50.90
2018-08-17T15:48:19.937Z,49.80
2018-08-17T15:50:52.024Z,50.20
2018-08-17T15:53:23.777Z,51.50
2018-08-17T15:55:59.236Z,52.00
2018-08-17T15:58:27.806Z,51.40
2018-08-17T16:00:59.347Z,51.20
2018-08-17T16:03:27.940Z,52.10
2018-08-17T16:06:00.089Z,51.70
2018-08-17T16:08:28.879Z,52.60
2018-08-17T16:11:01.976Z,52.00
2018-08-17T16:13:30.490Z,52.50
2018-08-17T16:16:02.767Z,52.90
2018-08-17T16:18:31.351Z,52.70
2018-08-17T16:21:03.716Z,53.20
2018-08-17T16:23:32.274Z,53.60
2018-08-17T16:26:04.636Z,53.90
2018-08-17T16:28:33.556Z,54.50
2018-08-17T16:31:05.514Z,54.80
2018-08-17T16:33:34.046Z,54.80
2018-08-17T16:36:02.606Z,55.20
2018-08-17T16:38:35.858Z,56.60
2018-08-17T16:41:04.574Z,55.70
2018-08-17T16:43:46.746Z,56.70
2018-08-17T16:46:15.336Z,57.00
2018-08-17T16:48:47.573Z,56.70
2018-08-17T16:51:17.040Z,57.20
2018-08-17T16:53:52.214Z,57.10
2018-08-17T16:56:20.786Z,57.20
2018-08-17T16:58:53.993Z,57.40
2018-08-17T17:01:23.569Z,57.90
2018-08-17T17:03:55.740Z,59.40
2018-08-17T17:06:24.365Z,60.70
2018-08-17T17:09:03.776Z,62.60
2018-08-17T17:11:32.363Z,62.90
2018-08-17T17:14:04.815Z,64.00
2018-08-17T17:16:38.804Z,65.30
2018-08-17T17:19:17.292Z,65.70
2018-08-17T17:21:47.124Z,66.20
2018-08-17T17:24:19.100Z,67.70
2018-08-17T17:26:47.686Z,67.90
2018-08-17T17:29:20.931Z,68.50
2018-08-17T17:31:51.157Z,69.00
2018-08-17T17:34:22.705Z,69.40
2018-08-17T17:36:51.245Z,70.30
2018-08-17T17:39:19.779Z,70.90
2018-08-17T17:41:52.253Z,71.50
2018-08-17T17:44:20.758Z,71.50
2018-08-17T17:46:49.363Z,71.70
2018-08-17T17:49:21.673Z,72.60
2018-08-17T17:51:50.223Z,72.60
2018-08-17T17:54:28.882Z,73.40
2018-08-17T17:57:04.084Z,73.50
2018-08-17T17:59:36.289Z,73.80
2018-08-17T18:02:04.911Z,74.00
2018-08-17T18:04:37.986Z,74.20
2018-08-17T18:07:07.569Z,74.10
2018-08-17T18:09:39.789Z,74.40
2018-08-17T18:12:08.785Z,74.70
2018-08-17T18:14:41.536Z,74.50
2018-08-17T18:17:11.481Z,74.00
2018-08-17T18:19:43.314Z,75.40
2018-08-17T18:22:18.544Z,74.70
2018-08-17T18:24:50.564Z,74.90
2018-08-17T18:27:19.238Z,75.70
2018-08-17T18:29:51.492Z,75.30
2018-08-17T18:32:20.176Z,75.80
2018-08-17T18:34:52.243Z,76.10
2018-08-17T18:37:21.227Z,76.00
2018-08-17T18:39:54.971Z,76.60
2018-08-17T18:42:26.200Z,77.40
2018-08-17T18:44:59.159Z,77.40
2018-08-17T18:47:28.152Z,77.80
2018-08-17T18:50:00.361Z,77.70
2018-08-17T18:52:29.146Z,77.80
2018-08-17T18:55:05.051Z,78.30
2018-08-17T18:57:33.923Z,78.00
2018-08-17T19:00:06.672Z,78.70
2018-08-17T19:02:35.282Z,78.50
2018-08-17T19:05:07.577Z,79.00
2018-08-17T19:07:36.560Z,78.70
2018-08-17T19:10:09.278Z,78.90
2018-08-17T19:12:37.932Z,79.60
2018-08-17T19:15:15.614Z,79.70
2018-08-17T19:17:44.185Z,79.70
2018-08-17T19:20:16.473Z,80.00
2018-08-17T19:22:46.076Z,80.20
2018-08-17T19:25:19.149Z,80.60
2018-08-17T19:27:47.740Z,80.90
2018-08-17T19:30:28.202Z,81.30
2018-08-17T19:32:57.956Z,81.60
2018-08-17T19:35:30.937Z,82.40
2018-08-17T19:37:59.934Z,82.70
2018-08-17T19:40:32.723Z,83.10
2018-08-17T19:43:01.308Z,83.40
2018-08-17T19:45:29.844Z,83.60
2018-08-17T19:48:01.350Z,83.90
2018-08-17T19:50:34.776Z,84.10
2018-08-17T19:53:06.664Z,84.60
2018-08-17T19:55:38.415Z,85.10
2018-08-17T19:58:14.316Z,85.30
2018-08-17T20:00:42.962Z,86.00
2018-08-17T20:03:15.718Z,86.70
2018-08-17T20:05:44.217Z,87.00
2018-08-17T20:08:12.753Z,87.50
2018-08-17T20:10:44.278Z,88.10
2018-08-17T20:13:12.768Z,88.80
2018-08-17T20:15:41.241Z,89.70
2018-08-17T20:18:13.792Z,90.30
2018-08-17T20:20:42.346Z,90.10
2018-08-17T20:23:14.761Z,90.60
2018-08-17T20:25:43.392Z,90.80
2018-08-17T20:28:15.551Z,91.00
2018-08-17T20:30:44.091Z,91.30
2018-08-17T20:33:22.773Z,91.40
2018-08-17T20:35:51.641Z,91.80
2018-08-17T20:38:23.662Z,92.30
2018-08-17T20:40:53.324Z,92.60
2018-08-17T20:43:25.441Z,93.10
2018-08-17T20:45:54.069Z,93.60
2018-08-17T20:48:22.668Z,94.10
2018-08-17T20:50:56.219Z,94.50
2018-08-17T20:53:24.772Z,94.90
2018-08-17T20:56:00.469Z,95.30
2018-08-17T20:58:29.281Z,96.00
2018-08-17T21:01:01.422Z,95.90
2018-08-17T21:03:30.099Z,96.50
2018-08-17T21:06:03.126Z,97.10
2018-08-17T21:08:31.672Z,97.10
2018-08-17T21:11:04.901Z,97.60
2018-08-17T21:13:33.560Z,98.00
2018-08-17T21:16:05.773Z,98.70
2018-08-17T21:18:34.357Z,99.00
2018-08-17T21:21:06.628Z,99.20
2018-08-17T21:23:35.714Z,99.40
2018-08-17T21:26:07.627Z,99.70
2018-08-17T21:28:36.256Z,99.90
2018-08-17T21:31:08.501Z,99.90
2018-08-17T21:33:37.795Z,99.90
2018-08-17T21:36:09.328Z,99.90
2018-08-17T21:38:37.864Z,99.90
2018-08-17T21:41:13.574Z,99.90
2018-08-17T21:43:42.182Z,99.90
2018-08-17T21:46:13.798Z,99.90
2018-08-17T21:48:42.423Z,99.90
2018-08-17T21:51:10.904Z,99.90
2018-08-17T21:53:43.326Z,99.90
2018-08-17T21:56:14.928Z,99.90
2018-08-17T21:58:46.863Z,99.90
2018-08-17T22:01:15.427Z,99.90
2018-08-17T22:03:47.703Z,99.90
2018-08-17T22:06:16.256Z,99.90
2018-08-17T22:08:48.670Z,99.90
2018-08-17T22:11:31.022Z,99.90
2018-08-17T22:14:03.966Z,99.90
2018-08-17T22:16:32.514Z,99.90
2018-08-17T22:19:04.991Z,99.90
2018-08-17T22:21:33.426Z,99.90
2018-08-17T22:24:05.841Z,99.90
2018-08-17T22:26:34.304Z,99.90
2018-08-17T22:29:02.796Z,99.90
2018-08-17T22:31:41.598Z,99.90
2018-08-17T22:34:10.134Z,99.90
2018-08-17T22:36:38.683Z,99.90
2018-08-17T22:39:11.962Z,99.90
2018-08-17T22:41:40.481Z,99.90
2018-08-17T22:44:17.409Z,99.90
2018-08-17T22:46:56.049Z,99.90
2018-08-17T22:49:27.391Z,99.90
2018-08-17T22:51:55.888Z,99.90
2018-08-17T22:54:24.357Z,99.90
2018-08-17T22:57:00.461Z,99.90
2018-08-17T22:59:28.963Z,99.90
2018-08-17T23:01:57.408Z,99.90
2018-08-17T23:04:29.978Z,99.90
2018-08-17T23:06:58.463Z,99.90
2018-08-17T23:09:34.521Z,99.90
2018-08-17T23:12:03.338Z,99.90
2018-08-17T23:14:35.362Z,99.90
2018-08-17T23:17:03.905Z,99.90
2018-08-17T23:19:32.403Z,99.90
2018-08-17T23:22:04.863Z,99.90
2018-08-17T23:24:33.378Z,99.90
2018-08-17T23:27:01.879Z,99.90
2018-08-17T23:29:33.571Z,99.90
2018-08-17T23:32:02.084Z,99.90
2018-08-17T23:34:30.612Z,99.90
2018-08-17T23:37:03.000Z,99.90
2018-08-17T23:39:31.539Z,99.90
2018-08-17T23:42:03.859Z,99.90
2018-08-17T23:44:32.464Z,99.90
2018-08-17T23:47:00.939Z,99.90
2018-08-17T23:49:32.495Z,99.90
2018-08-17T23:52:01.063Z,99.90
2018-08-17T23:54:29.583Z,99.90
2018-08-17T23:57:05.564Z,99.90
2018-08-17T23:59:34.099Z,99.90
